sensor_id;sensor_type;location;lat;lon;timestamp;P1;durP1;ratioP1;P2;durP2;ratioP2
6205;SDS011;3136;48.788;9.772;2023-03-14T00:01:16;1.83;;;1.17;;
6205;SDS011;3136;48.788;9.772;2023-03-14T00:03:43;0.97;;;0.87;;
6205;SDS011;3136;48.788;9.772;2023-03-14T00:06:09;1.77;;;1.00;;
6205;SDS011;3136;48.788;9.772;2023-03-14T00:08:36;0.93;;;0.60;;
6205;SDS011;3136;48.788;9.772;2023-03-14T00:11:05;3.37;;;0.70;;
6205;SDS011;3136;48.788;9.772;2023-03-14T00:13:35;1.87;;;0.90;;
6205;SDS011;3136;48.788;9.772;2023-03-14T00:16:02;0.43;;;0.43;;
6205;SDS011;3136;48.788;9.772;2023-03-14T00:18:29;1.27;;;0.70;;
6205;SDS011;3136;48.788;9.772;2023-03-14T00:20:57;1.40;;;0.60;;
6205;SDS011;3136;48.788;9.772;2023-03-14T00:23:24;0.80;;;0.60;;
6205;SDS011;3136;48.788;9.772;2023-03-14T00:25:50;1.53;;;0.63;;
6205;SDS011;3136;48.788;9.772;2023-03-14T00:28:16;0.93;;;0.47;;
6205;SDS011;3136;48.788;9.772;2023-03-14T00:30:41;1.73;;;0.70;;
6205;SDS011;3136;48.788;9.772;2023-03-14T00:33:07;0.87;;;0.57;;
6205;SDS011;3136;48.788;9.772;2023-03-14T00:35:33;1.33;;;0.50;;
6205;SDS011;3136;48.788;9.772;2023-03-14T00:37:59;0.47;;;0.40;;
6205;SDS011;3136;48.788;9.772;2023-03-14T00:40:25;0.40;;;0.40;;
6205;SDS011;3136;48.788;9.772;2023-03-14T00:42:50;1.13;;;0.50;;
6205;SDS011;3136;48.788;9.772;2023-03-14T00:45:16;0.40;;;0.40;;
6205;SDS011;3136;48.788;9.772;2023-03-14T00:47:41;1.23;;;0.60;;
6205;SDS011;3136;48.788;9.772;2023-03-14T00:50:10;0.60;;;0.40;;
6205;SDS011;3136;48.788;9.772;2023-03-14T00:52:36;0.40;;;0.40;;
6205;SDS011;3136;48.788;9.772;2023-03-14T00:55:02;0.40;;;0.40;;
6205;SDS011;3136;48.788;9.772;2023-03-14T00:57:28;0.40;;;0.40;;
6205;SDS011;3136;48.788;9.772;2023-03-14T00:59:53;0.57;;;0.40;;
6205;SDS011;3136;48.788;9.772;2023-03-14T01:02:19;0.67;;;0.50;;
6205;SDS011;3136;48.788;9.772;2023-03-14T01:04:46;0.73;;;0.73;;
6205;SDS011;3136;48.788;9.772;2023-03-14T01:07:12;2.03;;;0.80;;
6205;SDS011;3136;48.788;9.772;2023-03-14T01:09:38;0.60;;;0.60;;
6205;SDS011;3136;48.788;9.772;2023-03-14T01:12:03;0.67;;;0.50;;
6205;SDS011;3136;48.788;9.772;2023-03-14T01:14:29;0.30;;;0.30;;
6205;SDS011;3136;48.788;9.772;2023-03-14T01:16:54;0.40;;;0.40;;
6205;SDS011;3136;48.788;9.772;2023-03-14T01:19:25;0.40;;;0.40;;
6205;SDS011;3136;48.788;9.772;2023-03-14T01:21:54;0.60;;;0.43;;
6205;SDS011;3136;48.788;9.772;2023-03-14T01:24:20;0.30;;;0.23;;
6205;SDS011;3136;48.788;9.772;2023-03-14T01:26:45;0.13;;;0.13;;
6205;SDS011;3136;48.788;9.772;2023-03-14T01:29:11;0.40;;;0.40;;
6205;SDS011;3136;48.788;9.772;2023-03-14T01:31:37;0.30;;;0.30;;
6205;SDS011;3136;48.788;9.772;2023-03-14T01:34:03;0.47;;;0.30;;
6205;SDS011;3136;48.788;9.772;2023-03-14T01:36:29;0.57;;;0.40;;
6205;SDS011;3136;48.788;9.772;2023-03-14T01:38:55;0.60;;;0.30;;
6205;SDS011;3136;48.788;9.772;2023-03-14T01:41:22;1.07;;;0.37;;
6205;SDS011;3136;48.788;9.772;2023-03-14T01:43:50;0.70;;;0.30;;
6205;SDS011;3136;48.788;9.772;2023-03-14T01:46:18;0.30;;;0.30;;
6205;SDS011;3136;48.788;9.772;2023-03-14T01:49:03;0.10;;;0.10;;
6205;SDS011;3136;48.788;9.772;2023-03-14T01:54:07;0.67;;;0.40;;
6205;SDS011;3136;48.788;9.772;2023-03-14T01:56:41;0.23;;;0.23;;
6205;SDS011;3136;48.788;9.772;2023-03-14T01:59:11;0.83;;;0.27;;
6205;SDS011;3136;48.788;9.772;2023-03-14T02:01:37;0.40;;;0.30;;
6205;SDS011;3136;48.788;9.772;2023-03-14T02:04:06;0.20;;;0.20;;
6205;SDS011;3136;48.788;9.772;2023-03-14T02:06:40;0.50;;;0.50;;
6205;SDS011;3136;48.788;9.772;2023-03-14T02:09:15;0.30;;;0.30;;
6205;SDS011;3136;48.788;9.772;2023-03-14T02:11:41;0.30;;;0.20;;
6205;SDS011;3136;48.788;9.772;2023-03-14T02:14:09;1.90;;;0.60;;
6205;SDS011;3136;48.788;9.772;2023-03-14T02:16:44;0.80;;;0.30;;
6205;SDS011;3136;48.788;9.772;2023-03-14T02:19:10;3.23;;;0.30;;
6205;SDS011;3136;48.788;9.772;2023-03-14T02:24:13;1.03;;;0.20;;
6205;SDS011;3136;48.788;9.772;2023-03-14T02:27:04;0.60;;;0.30;;
6205;SDS011;3136;48.788;9.772;2023-03-14T02:29:39;0.70;;;0.30;;
6205;SDS011;3136;48.788;9.772;2023-03-14T02:32:10;1.20;;;0.40;;
6205;SDS011;3136;48.788;9.772;2023-03-14T02:34:37;0.20;;;0.20;;
6205;SDS011;3136;48.788;9.772;2023-03-14T02:37:03;0.33;;;0.33;;
6205;SDS011;3136;48.788;9.772;2023-03-14T02:39:35;0.97;;;0.27;;
6205;SDS011;3136;48.788;9.772;2023-03-14T02:42:06;0.83;;;0.40;;
6205;SDS011;3136;48.788;9.772;2023-03-14T02:44:32;0.80;;;0.50;;
6205;SDS011;3136;48.788;9.772;2023-03-14T02:47:00;0.70;;;0.40;;
6205;SDS011;3136;48.788;9.772;2023-03-14T02:49:26;0.50;;;0.43;;
6205;SDS011;3136;48.788;9.772;2023-03-14T02:51:53;0.30;;;0.30;;
6205;SDS011;3136;48.788;9.772;2023-03-14T02:54:19;0.30;;;0.27;;
6205;SDS011;3136;48.788;9.772;2023-03-14T02:56:45;0.83;;;0.67;;
6205;SDS011;3136;48.788;9.772;2023-03-14T02:59:11;0.80;;;0.50;;
6205;SDS011;3136;48.788;9.772;2023-03-14T03:01:37;1.93;;;0.40;;
6205;SDS011;3136;48.788;9.772;2023-03-14T03:04:03;0.63;;;0.40;;
6205;SDS011;3136;48.788;9.772;2023-03-14T03:06:29;1.17;;;0.53;;
6205;SDS011;3136;48.788;9.772;2023-03-14T03:08:55;0.40;;;0.40;;
6205;SDS011;3136;48.788;9.772;2023-03-14T03:11:21;0.20;;;0.20;;
6205;SDS011;3136;48.788;9.772;2023-03-14T03:13:47;2.67;;;0.50;;
6205;SDS011;3136;48.788;9.772;2023-03-14T03:16:12;6.83;;;0.53;;
6205;SDS011;3136;48.788;9.772;2023-03-14T03:18:39;0.50;;;0.40;;
6205;SDS011;3136;48.788;9.772;2023-03-14T03:21:05;0.67;;;0.40;;
6205;SDS011;3136;48.788;9.772;2023-03-14T03:23:33;0.70;;;0.40;;
6205;SDS011;3136;48.788;9.772;2023-03-14T03:25:59;1.90;;;0.50;;
6205;SDS011;3136;48.788;9.772;2023-03-14T03:28:25;0.93;;;0.40;;
6205;SDS011;3136;48.788;9.772;2023-03-14T03:30:51;0.27;;;0.27;;
6205;SDS011;3136;48.788;9.772;2023-03-14T03:33:16;1.03;;;0.40;;
6205;SDS011;3136;48.788;9.772;2023-03-14T03:35:43;0.57;;;0.57;;
6205;SDS011;3136;48.788;9.772;2023-03-14T03:38:10;0.80;;;0.60;;
6205;SDS011;3136;48.788;9.772;2023-03-14T03:40:36;0.80;;;0.57;;
6205;SDS011;3136;48.788;9.772;2023-03-14T03:43:02;0.70;;;0.70;;
6205;SDS011;3136;48.788;9.772;2023-03-14T03:45:28;2.30;;;0.83;;
6205;SDS011;3136;48.788;9.772;2023-03-14T03:47:54;1.33;;;0.90;;
6205;SDS011;3136;48.788;9.772;2023-03-14T03:50:20;0.70;;;0.60;;
6205;SDS011;3136;48.788;9.772;2023-03-14T03:52:46;1.27;;;0.80;;
6205;SDS011;3136;48.788;9.772;2023-03-14T03:55:12;0.70;;;0.70;;
6205;SDS011;3136;48.788;9.772;2023-03-14T03:57:37;2.70;;;0.80;;
6205;SDS011;3136;48.788;9.772;2023-03-14T04:00:03;1.90;;;0.90;;
6205;SDS011;3136;48.788;9.772;2023-03-14T04:02:30;2.10;;;0.93;;
6205;SDS011;3136;48.788;9.772;2023-03-14T04:04:56;0.90;;;0.70;;
6205;SDS011;3136;48.788;9.772;2023-03-14T04:07:22;0.77;;;0.70;;
6205;SDS011;3136;48.788;9.772;2023-03-14T04:09:48;1.23;;;0.80;;
6205;SDS011;3136;48.788;9.772;2023-03-14T04:12:14;2.80;;;1.00;;
6205;SDS011;3136;48.788;9.772;2023-03-14T04:14:40;1.60;;;1.03;;
6205;SDS011;3136;48.788;9.772;2023-03-14T04:17:06;1.97;;;0.90;;
6205;SDS011;3136;48.788;9.772;2023-03-14T04:19:32;1.60;;;0.80;;
6205;SDS011;3136;48.788;9.772;2023-03-14T04:21:57;1.57;;;1.10;;
6205;SDS011;3136;48.788;9.772;2023-03-14T04:24:23;1.80;;;0.90;;
6205;SDS011;3136;48.788;9.772;2023-03-14T04:26:49;2.03;;;0.83;;
6205;SDS011;3136;48.788;9.772;2023-03-14T04:29:15;2.97;;;0.80;;
6205;SDS011;3136;48.788;9.772;2023-03-14T04:31:41;1.50;;;0.70;;
6205;SDS011;3136;48.788;9.772;2023-03-14T04:34:07;1.23;;;0.50;;
6205;SDS011;3136;48.788;9.772;2023-03-14T04:36:33;2.60;;;0.70;;
6205;SDS011;3136;48.788;9.772;2023-03-14T04:38:59;1.70;;;0.93;;
6205;SDS011;3136;48.788;9.772;2023-03-14T04:41:24;5.27;;;0.97;;
6205;SDS011;3136;48.788;9.772;2023-03-14T04:43:50;2.23;;;0.80;;
6205;SDS011;3136;48.788;9.772;2023-03-14T04:46:15;3.10;;;0.87;;
6205;SDS011;3136;48.788;9.772;2023-03-14T04:48:41;2.37;;;0.87;;
6205;SDS011;3136;48.788;9.772;2023-03-14T04:51:07;5.57;;;0.70;;
6205;SDS011;3136;48.788;9.772;2023-03-14T04:53:34;2.53;;;1.00;;
6205;SDS011;3136;48.788;9.772;2023-03-14T04:56:00;2.40;;;0.80;;
6205;SDS011;3136;48.788;9.772;2023-03-14T04:58:26;1.27;;;0.53;;
6205;SDS011;3136;48.788;9.772;2023-03-14T05:00:52;4.27;;;1.13;;
6205;SDS011;3136;48.788;9.772;2023-03-14T05:03:18;6.40;;;1.27;;
6205;SDS011;3136;48.788;9.772;2023-03-14T05:05:44;2.33;;;1.10;;
6205;SDS011;3136;48.788;9.772;2023-03-14T05:08:10;2.43;;;0.83;;
6205;SDS011;3136;48.788;9.772;2023-03-14T05:10:36;1.30;;;0.60;;
6205;SDS011;3136;48.788;9.772;2023-03-14T05:13:02;3.67;;;1.00;;
6205;SDS011;3136;48.788;9.772;2023-03-14T05:15:28;2.20;;;0.90;;
6205;SDS011;3136;48.788;9.772;2023-03-14T05:17:54;1.93;;;0.90;;
6205;SDS011;3136;48.788;9.772;2023-03-14T05:20:20;2.87;;;1.03;;
6205;SDS011;3136;48.788;9.772;2023-03-14T05:22:46;2.20;;;0.73;;
6205;SDS011;3136;48.788;9.772;2023-03-14T05:25:12;2.60;;;1.03;;
6205;SDS011;3136;48.788;9.772;2023-03-14T05:27:38;3.33;;;1.00;;
6205;SDS011;3136;48.788;9.772;2023-03-14T05:30:04;3.77;;;1.20;;
6205;SDS011;3136;48.788;9.772;2023-03-14T05:32:31;2.13;;;0.73;;
6205;SDS011;3136;48.788;9.772;2023-03-14T05:34:57;2.53;;;0.70;;
6205;SDS011;3136;48.788;9.772;2023-03-14T05:37:27;4.47;;;1.37;;
6205;SDS011;3136;48.788;9.772;2023-03-14T05:39:53;2.97;;;0.87;;
6205;SDS011;3136;48.788;9.772;2023-03-14T05:42:19;4.67;;;1.00;;
6205;SDS011;3136;48.788;9.772;2023-03-14T05:44:44;1.40;;;0.80;;
6205;SDS011;3136;48.788;9.772;2023-03-14T05:47:10;3.20;;;0.80;;
6205;SDS011;3136;48.788;9.772;2023-03-14T05:49:36;3.40;;;0.90;;
6205;SDS011;3136;48.788;9.772;2023-03-14T05:52:02;2.53;;;1.03;;
6205;SDS011;3136;48.788;9.772;2023-03-14T05:54:27;5.20;;;1.17;;
6205;SDS011;3136;48.788;9.772;2023-03-14T05:56:53;3.97;;;1.07;;
6205;SDS011;3136;48.788;9.772;2023-03-14T05:59:19;4.67;;;1.20;;
6205;SDS011;3136;48.788;9.772;2023-03-14T06:01:45;9.20;;;1.87;;
6205;SDS011;3136;48.788;9.772;2023-03-14T06:04:10;3.27;;;1.17;;
6205;SDS011;3136;48.788;9.772;2023-03-14T06:06:36;2.93;;;1.00;;
6205;SDS011;3136;48.788;9.772;2023-03-14T06:09:02;3.07;;;1.00;;
6205;SDS011;3136;48.788;9.772;2023-03-14T06:11:28;5.53;;;1.03;;
6205;SDS011;3136;48.788;9.772;2023-03-14T06:13:53;1.93;;;0.90;;
6205;SDS011;3136;48.788;9.772;2023-03-14T06:16:19;3.00;;;0.93;;
6205;SDS011;3136;48.788;9.772;2023-03-14T06:18:45;4.20;;;1.00;;
6205;SDS011;3136;48.788;9.772;2023-03-14T06:21:13;4.90;;;1.20;;
6205;SDS011;3136;48.788;9.772;2023-03-14T06:23:39;4.53;;;1.00;;
6205;SDS011;3136;48.788;9.772;2023-03-14T06:26:05;3.03;;;0.80;;
6205;SDS011;3136;48.788;9.772;2023-03-14T06:28:31;3.07;;;0.70;;
6205;SDS011;3136;48.788;9.772;2023-03-14T06:30:58;3.97;;;1.00;;
6205;SDS011;3136;48.788;9.772;2023-03-14T06:33:25;2.57;;;1.00;;
6205;SDS011;3136;48.788;9.772;2023-03-14T06:35:50;4.33;;;1.00;;
6205;SDS011;3136;48.788;9.772;2023-03-14T06:38:16;3.77;;;1.27;;
6205;SDS011;3136;48.788;9.772;2023-03-14T06:40:42;4.13;;;1.20;;
6205;SDS011;3136;48.788;9.772;2023-03-14T06:43:08;3.33;;;1.20;;
6205;SDS011;3136;48.788;9.772;2023-03-14T06:45:34;3.83;;;1.70;;
6205;SDS011;3136;48.788;9.772;2023-03-14T06:48:00;4.23;;;1.47;;
6205;SDS011;3136;48.788;9.772;2023-03-14T06:50:25;4.07;;;1.20;;
6205;SDS011;3136;48.788;9.772;2023-03-14T06:52:51;2.97;;;1.17;;
6205;SDS011;3136;48.788;9.772;2023-03-14T06:55:17;3.83;;;1.10;;
6205;SDS011;3136;48.788;9.772;2023-03-14T06:57:43;2.73;;;0.97;;
6205;SDS011;3136;48.788;9.772;2023-03-14T07:00:10;3.80;;;1.40;;
6205;SDS011;3136;48.788;9.772;2023-03-14T07:02:37;5.20;;;1.50;;
6205;SDS011;3136;48.788;9.772;2023-03-14T07:05:03;2.73;;;1.10;;
6205;SDS011;3136;48.788;9.772;2023-03-14T07:07:29;4.33;;;1.67;;
6205;SDS011;3136;48.788;9.772;2023-03-14T07:09:55;3.40;;;1.23;;
6205;SDS011;3136;48.788;9.772;2023-03-14T07:12:21;6.17;;;1.67;;
6205;SDS011;3136;48.788;9.772;2023-03-14T07:14:47;5.53;;;1.77;;
6205;SDS011;3136;48.788;9.772;2023-03-14T07:17:13;3.17;;;1.37;;
6205;SDS011;3136;48.788;9.772;2023-03-14T07:19:39;4.30;;;1.43;;
6205;SDS011;3136;48.788;9.772;2023-03-14T07:22:04;3.43;;;1.40;;
6205;SDS011;3136;48.788;9.772;2023-03-14T07:24:30;1.33;;;0.90;;
6205;SDS011;3136;48.788;9.772;2023-03-14T07:26:56;5.83;;;1.40;;
6205;SDS011;3136;48.788;9.772;2023-03-14T07:29:21;2.17;;;1.33;;
6205;SDS011;3136;48.788;9.772;2023-03-14T07:31:47;4.33;;;1.40;;
6205;SDS011;3136;48.788;9.772;2023-03-14T07:34:13;2.73;;;1.10;;
6205;SDS011;3136;48.788;9.772;2023-03-14T07:36:39;5.57;;;1.60;;
6205;SDS011;3136;48.788;9.772;2023-03-14T07:39:04;2.97;;;1.00;;
6205;SDS011;3136;48.788;9.772;2023-03-14T07:41:30;4.00;;;1.30;;
6205;SDS011;3136;48.788;9.772;2023-03-14T07:43:56;2.57;;;1.03;;
6205;SDS011;3136;48.788;9.772;2023-03-14T07:46:22;2.30;;;0.90;;
6205;SDS011;3136;48.788;9.772;2023-03-14T07:48:48;3.93;;;0.97;;
6205;SDS011;3136;48.788;9.772;2023-03-14T07:51:13;2.27;;;0.93;;
6205;SDS011;3136;48.788;9.772;2023-03-14T07:53:39;2.57;;;0.90;;
6205;SDS011;3136;48.788;9.772;2023-03-14T07:56:05;4.40;;;0.73;;
6205;SDS011;3136;48.788;9.772;2023-03-14T07:58:31;1.30;;;0.80;;
6205;SDS011;3136;48.788;9.772;2023-03-14T08:00:59;1.60;;;0.83;;
6205;SDS011;3136;48.788;9.772;2023-03-14T08:03:24;2.43;;;0.77;;
6205;SDS011;3136;48.788;9.772;2023-03-14T08:05:50;1.80;;;0.67;;
6205;SDS011;3136;48.788;9.772;2023-03-14T08:08:17;0.93;;;0.50;;
6205;SDS011;3136;48.788;9.772;2023-03-14T08:10:42;4.00;;;1.00;;
6205;SDS011;3136;48.788;9.772;2023-03-14T08:13:08;2.43;;;0.77;;
6205;SDS011;3136;48.788;9.772;2023-03-14T08:15:34;1.73;;;0.70;;
6205;SDS011;3136;48.788;9.772;2023-03-14T08:18:01;1.20;;;0.60;;
6205;SDS011;3136;48.788;9.772;2023-03-14T08:20:28;2.30;;;0.97;;
6205;SDS011;3136;48.788;9.772;2023-03-14T08:22:55;1.67;;;0.60;;
6205;SDS011;3136;48.788;9.772;2023-03-14T08:25:22;1.53;;;0.50;;
6205;SDS011;3136;48.788;9.772;2023-03-14T08:27:49;2.17;;;0.47;;
6205;SDS011;3136;48.788;9.772;2023-03-14T08:30:15;1.37;;;0.40;;
6205;SDS011;3136;48.788;9.772;2023-03-14T08:32:42;1.30;;;0.57;;
6205;SDS011;3136;48.788;9.772;2023-03-14T08:35:08;2.03;;;0.37;;
6205;SDS011;3136;48.788;9.772;2023-03-14T08:37:34;1.63;;;0.77;;
6205;SDS011;3136;48.788;9.772;2023-03-14T08:40:01;2.93;;;0.70;;
6205;SDS011;3136;48.788;9.772;2023-03-14T08:42:31;0.87;;;0.50;;
6205;SDS011;3136;48.788;9.772;2023-03-14T08:44:57;2.93;;;0.50;;
6205;SDS011;3136;48.788;9.772;2023-03-14T08:47:23;3.30;;;0.60;;
6205;SDS011;3136;48.788;9.772;2023-03-14T08:49:49;1.33;;;0.50;;
6205;SDS011;3136;48.788;9.772;2023-03-14T08:52:15;1.50;;;0.77;;
6205;SDS011;3136;48.788;9.772;2023-03-14T08:54:41;2.73;;;0.53;;
6205;SDS011;3136;48.788;9.772;2023-03-14T08:57:08;2.93;;;0.63;;
6205;SDS011;3136;48.788;9.772;2023-03-14T08:59:34;0.80;;;0.40;;
6205;SDS011;3136;48.788;9.772;2023-03-14T09:02:00;0.53;;;0.27;;
6205;SDS011;3136;48.788;9.772;2023-03-14T09:04:28;2.30;;;0.50;;
6205;SDS011;3136;48.788;9.772;2023-03-14T09:06:54;3.60;;;1.23;;
6205;SDS011;3136;48.788;9.772;2023-03-14T09:09:20;0.87;;;0.50;;
6205;SDS011;3136;48.788;9.772;2023-03-14T09:11:47;2.07;;;0.87;;
6205;SDS011;3136;48.788;9.772;2023-03-14T09:14:12;4.90;;;0.40;;
6205;SDS011;3136;48.788;9.772;2023-03-14T09:16:38;2.67;;;0.40;;
6205;SDS011;3136;48.788;9.772;2023-03-14T09:19:04;0.67;;;0.40;;
6205;SDS011;3136;48.788;9.772;2023-03-14T09:21:30;1.87;;;0.70;;
6205;SDS011;3136;48.788;9.772;2023-03-14T09:23:56;0.37;;;0.37;;
6205;SDS011;3136;48.788;9.772;2023-03-14T09:26:21;0.83;;;0.50;;
6205;SDS011;3136;48.788;9.772;2023-03-14T09:28:47;1.10;;;0.43;;
6205;SDS011;3136;48.788;9.772;2023-03-14T09:31:14;1.00;;;0.60;;
6205;SDS011;3136;48.788;9.772;2023-03-14T09:33:39;1.43;;;0.60;;
6205;SDS011;3136;48.788;9.772;2023-03-14T09:36:05;1.83;;;0.50;;
6205;SDS011;3136;48.788;9.772;2023-03-14T09:38:32;1.40;;;0.60;;
6205;SDS011;3136;48.788;9.772;2023-03-14T09:40:58;1.00;;;0.60;;
6205;SDS011;3136;48.788;9.772;2023-03-14T09:43:26;1.07;;;0.33;;
6205;SDS011;3136;48.788;9.772;2023-03-14T09:45:56;1.10;;;0.50;;
6205;SDS011;3136;48.788;9.772;2023-03-14T09:48:26;1.43;;;0.50;;
6205;SDS011;3136;48.788;9.772;2023-03-14T09:50:55;0.70;;;0.30;;
6205;SDS011;3136;48.788;9.772;2023-03-14T09:53:24;0.80;;;0.53;;
6205;SDS011;3136;48.788;9.772;2023-03-14T09:55:58;2.03;;;0.50;;
6205;SDS011;3136;48.788;9.772;2023-03-14T09:58:24;0.97;;;0.50;;
6205;SDS011;3136;48.788;9.772;2023-03-14T10:00:52;1.33;;;0.53;;
6205;SDS011;3136;48.788;9.772;2023-03-14T10:03:28;1.50;;;0.60;;
6205;SDS011;3136;48.788;9.772;2023-03-14T10:05:56;4.20;;;0.80;;
6205;SDS011;3136;48.788;9.772;2023-03-14T10:08:22;2.57;;;0.67;;
6205;SDS011;3136;48.788;9.772;2023-03-14T10:10:48;0.90;;;0.33;;
6205;SDS011;3136;48.788;9.772;2023-03-14T10:13:18;0.40;;;0.40;;
6205;SDS011;3136;48.788;9.772;2023-03-14T10:18:25;0.77;;;0.47;;
6205;SDS011;3136;48.788;9.772;2023-03-14T10:21:05;0.90;;;0.50;;
6205;SDS011;3136;48.788;9.772;2023-03-14T10:23:32;1.53;;;0.40;;
6205;SDS011;3136;48.788;9.772;2023-03-14T10:26:33;0.67;;;0.43;;
6205;SDS011;3136;48.788;9.772;2023-03-14T10:28:54;1.90;;;0.33;;
6205;SDS011;3136;48.788;9.772;2023-03-14T10:31:46;0.57;;;0.30;;
6205;SDS011;3136;48.788;9.772;2023-03-14T10:34:16;0.37;;;0.30;;
6205;SDS011;3136;48.788;9.772;2023-03-14T10:36:46;0.23;;;0.20;;
6205;SDS011;3136;48.788;9.772;2023-03-14T10:39:32;0.47;;;0.30;;
6205;SDS011;3136;48.788;9.772;2023-03-14T10:42:20;1.50;;;0.30;;
6205;SDS011;3136;48.788;9.772;2023-03-14T10:44:55;0.57;;;0.30;;
6205;SDS011;3136;48.788;9.772;2023-03-14T10:47:24;0.57;;;0.23;;
6205;SDS011;3136;48.788;9.772;2023-03-14T10:49:53;1.17;;;0.67;;
6205;SDS011;3136;48.788;9.772;2023-03-14T10:54:53;1.57;;;0.50;;
6205;SDS011;3136;48.788;9.772;2023-03-14T10:57:22;0.50;;;0.33;;
6205;SDS011;3136;48.788;9.772;2023-03-14T10:59:48;0.40;;;0.40;;
6205;SDS011;3136;48.788;9.772;2023-03-14T11:02:20;0.57;;;0.33;;
6205;SDS011;3136;48.788;9.772;2023-03-14T11:04:56;1.00;;;0.43;;
6205;SDS011;3136;48.788;9.772;2023-03-14T11:07:40;1.10;;;0.40;;
6205;SDS011;3136;48.788;9.772;2023-03-14T11:15:41;0.77;;;0.37;;
6205;SDS011;3136;48.788;9.772;2023-03-14T11:29:21;1.20;;;0.60;;
6205;SDS011;3136;48.788;9.772;2023-03-14T11:32:01;0.60;;;0.40;;
6205;SDS011;3136;48.788;9.772;2023-03-14T11:34:50;0.60;;;0.57;;
6205;SDS011;3136;48.788;9.772;2023-03-14T11:37:33;1.13;;;0.37;;
6205;SDS011;3136;48.788;9.772;2023-03-14T11:40:22;0.73;;;0.53;;
6205;SDS011;3136;48.788;9.772;2023-03-14T11:43:09;0.40;;;0.40;;
6205;SDS011;3136;48.788;9.772;2023-03-14T11:45:41;1.07;;;0.50;;
6205;SDS011;3136;48.788;9.772;2023-03-14T11:48:23;0.63;;;0.30;;
6205;SDS011;3136;48.788;9.772;2023-03-14T11:50:59;1.87;;;0.40;;
6205;SDS011;3136;48.788;9.772;2023-03-14T11:53:50;1.40;;;0.50;;
6205;SDS011;3136;48.788;9.772;2023-03-14T11:56:40;0.63;;;0.37;;
6205;SDS011;3136;48.788;9.772;2023-03-14T11:59:16;2.17;;;0.60;;
6205;SDS011;3136;48.788;9.772;2023-03-14T12:01:57;0.93;;;0.30;;
6205;SDS011;3136;48.788;9.772;2023-03-14T12:07:20;0.37;;;0.37;;
6205;SDS011;3136;48.788;9.772;2023-03-14T12:09:50;1.80;;;0.63;;
6205;SDS011;3136;48.788;9.772;2023-03-14T12:12:18;0.53;;;0.47;;
6205;SDS011;3136;48.788;9.772;2023-03-14T12:14:54;1.53;;;0.60;;
6205;SDS011;3136;48.788;9.772;2023-03-14T12:17:26;1.83;;;0.60;;
6205;SDS011;3136;48.788;9.772;2023-03-14T12:20:00;0.47;;;0.47;;
6205;SDS011;3136;48.788;9.772;2023-03-14T12:22:42;0.83;;;0.53;;
6205;SDS011;3136;48.788;9.772;2023-03-14T12:25:23;0.47;;;0.40;;
6205;SDS011;3136;48.788;9.772;2023-03-14T12:33:10;2.17;;;0.40;;
6205;SDS011;3136;48.788;9.772;2023-03-14T12:35:37;0.60;;;0.50;;
6205;SDS011;3136;48.788;9.772;2023-03-14T12:38:04;0.20;;;0.20;;
6205;SDS011;3136;48.788;9.772;2023-03-14T12:40:39;0.40;;;0.37;;
6205;SDS011;3136;48.788;9.772;2023-03-14T12:43:29;1.80;;;0.30;;
6205;SDS011;3136;48.788;9.772;2023-03-14T12:48:45;0.40;;;0.40;;
6205;SDS011;3136;48.788;9.772;2023-03-14T12:51:15;0.40;;;0.40;;
6205;SDS011;3136;48.788;9.772;2023-03-14T13:02:36;0.10;;;0.10;;
6205;SDS011;3136;48.788;9.772;2023-03-14T13:05:43;1.70;;;0.30;;
6205;SDS011;3136;48.788;9.772;2023-03-14T13:15:45;0.20;;;0.10;;
6205;SDS011;3136;48.788;9.772;2023-03-14T13:18:13;0.30;;;0.30;;
6205;SDS011;3136;48.788;9.772;2023-03-14T13:20:44;2.23;;;0.50;;
6205;SDS011;3136;48.788;9.772;2023-03-14T13:23:26;1.17;;;0.87;;
6205;SDS011;3136;48.788;9.772;2023-03-14T13:25:54;2.30;;;0.80;;
6205;SDS011;3136;48.788;9.772;2023-03-14T13:28:20;0.70;;;0.50;;
6205;SDS011;3136;48.788;9.772;2023-03-14T13:30:47;0.77;;;0.50;;
6205;SDS011;3136;48.788;9.772;2023-03-14T13:33:17;1.87;;;0.60;;
6205;SDS011;3136;48.788;9.772;2023-03-14T13:35:45;3.10;;;0.50;;
6205;SDS011;3136;48.788;9.772;2023-03-14T13:38:17;0.63;;;0.63;;
6205;SDS011;3136;48.788;9.772;2023-03-14T13:40:48;1.57;;;0.60;;
6205;SDS011;3136;48.788;9.772;2023-03-14T13:43:27;2.57;;;0.40;;
6205;SDS011;3136;48.788;9.772;2023-03-14T13:48:28;0.80;;;0.50;;
6205;SDS011;3136;48.788;9.772;2023-03-14T13:53:21;1.17;;;0.57;;
6205;SDS011;3136;48.788;9.772;2023-03-14T13:55:47;1.70;;;0.60;;
6205;SDS011;3136;48.788;9.772;2023-03-14T13:58:20;0.90;;;0.53;;
6205;SDS011;3136;48.788;9.772;2023-03-14T14:00:54;1.90;;;0.50;;
6205;SDS011;3136;48.788;9.772;2023-03-14T14:03:26;0.60;;;0.57;;
6205;SDS011;3136;48.788;9.772;2023-03-14T14:05:54;0.87;;;0.40;;
6205;SDS011;3136;48.788;9.772;2023-03-14T14:08:22;1.10;;;0.60;;
6205;SDS011;3136;48.788;9.772;2023-03-14T14:10:48;1.17;;;0.90;;
6205;SDS011;3136;48.788;9.772;2023-03-14T14:13:15;0.73;;;0.43;;
6205;SDS011;3136;48.788;9.772;2023-03-14T14:15:45;1.27;;;0.50;;
6205;SDS011;3136;48.788;9.772;2023-03-14T14:18:16;0.30;;;0.30;;
6205;SDS011;3136;48.788;9.772;2023-03-14T14:20:46;1.07;;;0.40;;
6205;SDS011;3136;48.788;9.772;2023-03-14T14:23:14;3.20;;;0.70;;
6205;SDS011;3136;48.788;9.772;2023-03-14T14:25:49;2.17;;;0.77;;
6205;SDS011;3136;48.788;9.772;2023-03-14T14:33:56;2.63;;;0.73;;
6205;SDS011;3136;48.788;9.772;2023-03-14T14:36:36;0.63;;;0.40;;
6205;SDS011;3136;48.788;9.772;2023-03-14T14:39:20;1.07;;;0.80;;
6205;SDS011;3136;48.788;9.772;2023-03-14T14:41:49;2.53;;;0.37;;
6205;SDS011;3136;48.788;9.772;2023-03-14T14:44:17;0.70;;;0.40;;
6205;SDS011;3136;48.788;9.772;2023-03-14T14:46:49;1.10;;;0.67;;
6205;SDS011;3136;48.788;9.772;2023-03-14T14:49:18;1.93;;;0.53;;
6205;SDS011;3136;48.788;9.772;2023-03-14T14:51:47;1.23;;;0.40;;
6205;SDS011;3136;48.788;9.772;2023-03-14T14:54:15;0.57;;;0.53;;
6205;SDS011;3136;48.788;9.772;2023-03-14T14:56:49;3.27;;;0.70;;
6205;SDS011;3136;48.788;9.772;2023-03-14T14:59:20;0.97;;;0.33;;
6205;SDS011;3136;48.788;9.772;2023-03-14T15:01:54;1.90;;;0.50;;
6205;SDS011;3136;48.788;9.772;2023-03-14T15:04:22;1.60;;;0.70;;
6205;SDS011;3136;48.788;9.772;2023-03-14T15:06:48;1.27;;;0.73;;
6205;SDS011;3136;48.788;9.772;2023-03-14T15:09:15;2.80;;;0.80;;
6205;SDS011;3136;48.788;9.772;2023-03-14T15:11:44;2.37;;;0.70;;
6205;SDS011;3136;48.788;9.772;2023-03-14T15:14:10;1.80;;;0.70;;
6205;SDS011;3136;48.788;9.772;2023-03-14T15:16:36;4.47;;;0.80;;
6205;SDS011;3136;48.788;9.772;2023-03-14T15:19:03;0.97;;;0.50;;
6205;SDS011;3136;48.788;9.772;2023-03-14T15:21:36;0.73;;;0.50;;
6205;SDS011;3136;48.788;9.772;2023-03-14T15:24:03;1.80;;;0.70;;
6205;SDS011;3136;48.788;9.772;2023-03-14T15:26:30;5.97;;;1.17;;
6205;SDS011;3136;48.788;9.772;2023-03-14T15:28:56;2.80;;;0.80;;
6205;SDS011;3136;48.788;9.772;2023-03-14T15:31:21;2.17;;;0.73;;
6205;SDS011;3136;48.788;9.772;2023-03-14T15:33:47;2.37;;;0.63;;
6205;SDS011;3136;48.788;9.772;2023-03-14T15:36:21;2.47;;;0.83;;
6205;SDS011;3136;48.788;9.772;2023-03-14T15:38:49;3.50;;;1.33;;
6205;SDS011;3136;48.788;9.772;2023-03-14T15:41:16;2.60;;;0.87;;
6205;SDS011;3136;48.788;9.772;2023-03-14T15:43:42;2.23;;;0.80;;
6205;SDS011;3136;48.788;9.772;2023-03-14T15:46:11;3.20;;;0.80;;
6205;SDS011;3136;48.788;9.772;2023-03-14T15:48:37;1.17;;;0.70;;
6205;SDS011;3136;48.788;9.772;2023-03-14T15:51:04;2.97;;;1.03;;
6205;SDS011;3136;48.788;9.772;2023-03-14T15:53:29;2.97;;;1.27;;
6205;SDS011;3136;48.788;9.772;2023-03-14T15:55:55;3.53;;;1.13;;
6205;SDS011;3136;48.788;9.772;2023-03-14T15:58:20;2.57;;;1.00;;
6205;SDS011;3136;48.788;9.772;2023-03-14T16:00:46;2.00;;;0.77;;
6205;SDS011;3136;48.788;9.772;2023-03-14T16:03:12;4.07;;;1.00;;
6205;SDS011;3136;48.788;9.772;2023-03-14T16:05:41;3.27;;;0.83;;
6205;SDS011;3136;48.788;9.772;2023-03-14T16:08:07;1.70;;;0.80;;
6205;SDS011;3136;48.788;9.772;2023-03-14T16:10:32;3.67;;;1.00;;
6205;SDS011;3136;48.788;9.772;2023-03-14T16:12:58;2.30;;;0.90;;
6205;SDS011;3136;48.788;9.772;2023-03-14T16:15:24;2.40;;;1.03;;
6205;SDS011;3136;48.788;9.772;2023-03-14T16:17:53;2.63;;;1.00;;
6205;SDS011;3136;48.788;9.772;2023-03-14T16:20:19;3.00;;;0.97;;
6205;SDS011;3136;48.788;9.772;2023-03-14T16:22:45;1.90;;;0.93;;
6205;SDS011;3136;48.788;9.772;2023-03-14T16:25:11;2.73;;;1.00;;
6205;SDS011;3136;48.788;9.772;2023-03-14T16:27:37;1.77;;;0.87;;